Jericho Center, Vermont
Current Conditions -  °F | °C
As of 6:54 AM on Friday 19 Dec 2014 (Local Time) from KBTV Reporting Station
Overcast Overcast  
Wind Chill: 15°   Ceiling: 1700
Heat Index: 26°   Visibility: 10mi
Dew Point: 19°   Wind: 13mph
Humidity: 75%   Direction: 340°NNW
Pressure: 30.01"   Gusts: NA
Location:  44.4697°N, 72.9617°W
Report Text: KBTV 191154Z 34011KT 10SM OVC017 M03/M07 A3001 RMK AO2 SLP166 4/007 60000 70002 T10331072 11017 21033 53016
Loading
Personal Weather Stations






























Interactive Weather Map New forecast layout! Learn more

10-Day Weather Forecast

Advertisements
Track Severe Weather on mobile